createdAt,value
2023-04-02T00:00:28.105Z,98167.16
2023-04-02T00:03:16.219Z,98167.23
2023-04-02T00:05:55.147Z,98168.23
2023-04-02T00:08:23.732Z,98168.45
2023-04-02T00:10:51.484Z,98169.87
2023-04-02T00:13:19.145Z,98168.21
2023-04-02T00:15:46.830Z,98167.41
2023-04-02T00:18:14.605Z,98170.09
2023-04-02T00:20:42.335Z,98175.00
2023-04-02T00:23:09.997Z,98177.34
2023-04-02T00:25:43.078Z,98180.39
2023-04-02T00:28:10.850Z,98184.17
2023-04-02T00:30:38.513Z,98185.27
2023-04-02T00:33:06.427Z,98186.69
2023-04-02T00:35:34.497Z,98183.03
2023-04-02T00:38:02.522Z,98191.39
2023-04-02T00:40:30.186Z,98190.52
2023-04-02T00:42:57.845Z,98193.87
2023-04-02T00:45:25.516Z,98196.81
2023-04-02T00:47:53.318Z,98206.59
2023-04-02T00:50:21.141Z,98206.09
2023-04-02T00:52:48.802Z,98207.20
2023-04-02T00:55:16.473Z,98207.98
2023-04-02T00:57:45.279Z,98213.04
2023-04-02T01:00:13.327Z,98213.55
2023-04-02T01:02:41.667Z,98218.98
2023-04-02T01:05:11.514Z,98221.52
2023-04-02T01:07:39.581Z,98223.65
2023-04-02T01:10:07.763Z,98227.19
2023-04-02T01:12:35.738Z,98226.52
2023-04-02T01:15:04.005Z,98220.73
2023-04-02T01:17:32.725Z,98219.48
2023-04-02T01:20:01.171Z,98223.45
2023-04-02T01:22:35.338Z,98226.09
2023-04-02T01:25:04.564Z,98229.84
2023-04-02T01:27:32.238Z,98225.80
2023-04-02T01:30:00.003Z,98226.75
2023-04-02T01:32:27.847Z,98230.83
2023-04-02T01:34:55.643Z,98232.62
2023-04-02T01:37:23.517Z,98235.53
2023-04-02T01:39:51.471Z,98238.38
2023-04-02T01:42:19.233Z,98244.20
2023-04-02T01:44:46.996Z,98245.15
2023-04-02T01:47:14.660Z,98247.31
2023-04-02T01:49:42.837Z,98246.31
2023-04-02T01:52:10.496Z,98247.04
2023-04-02T01:54:38.258Z,98248.55
2023-04-02T01:57:06.195Z,98256.54
2023-04-02T01:59:33.904Z,98257.20
2023-04-02T02:02:01.717Z,98261.48
2023-04-02T02:04:29.618Z,98263.36
2023-04-02T02:06:58.931Z,98262.30
2023-04-02T02:09:26.786Z,98264.75
2023-04-02T02:11:54.449Z,98267.25
2023-04-02T02:14:22.236Z,98269.52
2023-04-02T02:16:50.024Z,98267.32
2023-04-02T02:19:17.954Z,98271.16
2023-04-02T02:21:45.813Z,98274.84
2023-04-02T02:24:13.476Z,98278.72
2023-04-02T02:26:41.448Z,98284.03
2023-04-02T02:29:09.106Z,98279.23
2023-04-02T02:31:37.112Z,98285.23
2023-04-02T02:34:05.052Z,98286.83
2023-04-02T02:36:33.726Z,98289.98
2023-04-02T02:39:01.510Z,98289.81
2023-04-02T02:41:29.156Z,98291.94
2023-04-02T02:43:56.821Z,98294.23
2023-04-02T02:46:24.511Z,98297.22
2023-04-02T02:48:52.342Z,98299.13
2023-04-02T02:51:20.015Z,98301.51
2023-04-02T02:53:47.767Z,98300.06
2023-04-02T02:56:15.741Z,98300.60
2023-04-02T02:58:43.397Z,98303.76
2023-04-02T03:01:11.711Z,98308.30
2023-04-02T03:03:40.657Z,98309.58
2023-04-02T03:06:09.250Z,98310.14
2023-04-02T03:08:37.321Z,98311.00
2023-04-02T03:11:04.982Z,98315.61
2023-04-02T03:13:35.740Z,98314.39
2023-04-02T03:16:03.833Z,98314.21
2023-04-02T03:18:31.659Z,98315.38
2023-04-02T03:20:59.315Z,98313.41
2023-04-02T03:23:26.975Z,98314.92
2023-04-02T03:25:54.645Z,98315.02
2023-04-02T03:28:22.301Z,98318.38
2023-04-02T03:30:50.066Z,98324.62
2023-04-02T03:33:17.739Z,98332.59
2023-04-02T03:35:45.522Z,98332.06
2023-04-02T03:38:13.256Z,98332.75
2023-04-02T03:40:41.031Z,98333.95
2023-04-02T03:43:08.890Z,98334.66
2023-04-02T03:45:37.307Z,98336.21
2023-04-02T03:48:05.203Z,98338.05
2023-04-02T03:50:33.017Z,98338.44
2023-04-02T03:53:00.765Z,98345.08
2023-04-02T03:55:29.052Z,98351.86
2023-04-02T03:57:56.701Z,98356.45
2023-04-02T04:00:24.379Z,98360.66
2023-04-02T04:02:53.501Z,98363.84
2023-04-02T04:05:21.323Z,98364.23
2023-04-02T04:07:49.293Z,98364.41
2023-04-02T04:10:17.056Z,98369.93
2023-04-02T04:12:44.721Z,98377.46
2023-04-02T04:15:12.380Z,98381.14
2023-04-02T04:17:40.053Z,98382.50
2023-04-02T04:20:08.729Z,98387.02
2023-04-02T04:22:36.421Z,98388.79
2023-04-02T04:25:04.157Z,98390.05
2023-04-02T04:27:34.895Z,98396.73
2023-04-02T04:30:06.123Z,98400.77
2023-04-02T04:32:34.274Z,98403.16
2023-04-02T04:35:03.225Z,98405.31
2023-04-02T04:37:33.843Z,98409.86
2023-04-02T04:40:01.697Z,98413.52
2023-04-02T04:42:29.485Z,98414.54
2023-04-02T04:44:57.223Z,98416.45
2023-04-02T04:47:25.218Z,98421.33
2023-04-02T04:49:53.477Z,98419.78
2023-04-02T04:52:21.233Z,98419.61
2023-04-02T04:54:48.899Z,98421.13
2023-04-02T04:57:16.536Z,98425.66
2023-04-02T04:59:44.543Z,98427.11
2023-04-02T05:02:12.185Z,98432.53
2023-04-02T05:04:40.446Z,98437.08
2023-04-02T05:07:08.494Z,98440.77
2023-04-02T05:09:36.398Z,98440.27
2023-04-02T05:12:04.276Z,98440.67
2023-04-02T05:14:32.134Z,98443.46
2023-04-02T05:16:59.797Z,98443.05
2023-04-02T05:19:27.486Z,98447.54
2023-04-02T05:21:55.218Z,98446.87
2023-04-02T05:24:22.879Z,98454.19
2023-04-02T05:26:50.747Z,98453.34
2023-04-02T05:29:18.409Z,98454.04
2023-04-02T05:31:46.804Z,98455.42
2023-04-02T05:34:14.883Z,98460.44
2023-04-02T05:36:42.730Z,98462.51
2023-04-02T05:39:10.388Z,98462.81
2023-04-02T05:41:38.580Z,98465.74
2023-04-02T05:44:06.328Z,98466.77
2023-04-02T05:46:34.201Z,98461.95
2023-04-02T05:49:02.062Z,98467.52
2023-04-02T05:51:29.729Z,98466.84
2023-04-02T05:53:57.394Z,98470.66
2023-04-02T05:56:25.064Z,98469.25
2023-04-02T05:58:54.969Z,98472.20
2023-04-02T06:01:25.323Z,98475.62
2023-04-02T06:03:53.079Z,98482.17
2023-04-02T06:06:21.128Z,98478.89
2023-04-02T06:08:48.881Z,98484.61
2023-04-02T06:11:16.490Z,98488.45
2023-04-02T06:13:44.211Z,98490.86
2023-04-02T06:16:12.002Z,98496.91
2023-04-02T06:18:39.734Z,98494.82
2023-04-02T06:21:07.496Z,98498.66
2023-04-02T06:23:37.592Z,98500.39
2023-04-02T06:26:08.866Z,98502.08
2023-04-02T06:28:36.524Z,98505.81
2023-04-02T06:31:04.336Z,98509.33
2023-04-02T06:33:32.055Z,98512.61
2023-04-02T06:35:59.979Z,98514.30
2023-04-02T06:38:27.786Z,98520.16
2023-04-02T06:40:58.256Z,98523.09
2023-04-02T06:43:27.107Z,98523.93
2023-04-02T06:45:54.803Z,98526.18
2023-04-02T06:48:22.471Z,98526.48
2023-04-02T06:50:50.199Z,98531.13
2023-04-02T06:53:17.959Z,98528.74
2023-04-02T06:55:45.629Z,98534.08
2023-04-02T06:58:13.293Z,98532.67
2023-04-02T07:00:41.161Z,98534.76
2023-04-02T07:03:08.962Z,98536.80
2023-04-02T07:05:37.138Z,98536.24
2023-04-02T07:08:05.153Z,98535.49
2023-04-02T07:10:32.814Z,98541.02
2023-04-02T07:13:02.774Z,98538.73
2023-04-02T07:15:30.598Z,98538.88
2023-04-02T07:17:59.441Z,98540.74
2023-04-02T07:20:27.459Z,98545.48
2023-04-02T07:22:55.156Z,98551.38
2023-04-02T07:25:22.877Z,98555.02
2023-04-02T07:27:50.857Z,98559.01
2023-04-02T07:30:18.629Z,98557.94
2023-04-02T07:32:46.597Z,98559.51
2023-04-02T07:35:14.343Z,98558.11
2023-04-02T07:37:42.107Z,98559.84
2023-04-02T07:40:09.879Z,98563.98
2023-04-02T07:42:37.944Z,98566.77
2023-04-02T07:45:06.176Z,98570.24
2023-04-02T07:47:34.096Z,98580.71
2023-04-02T07:50:01.858Z,98582.81
2023-04-02T07:52:29.615Z,98585.86
2023-04-02T07:54:57.381Z,98586.53
2023-04-02T07:57:25.110Z,98585.14
2023-04-02T07:59:55.779Z,98587.73
2023-04-02T08:02:23.656Z,98589.10
2023-04-02T08:04:53.565Z,98592.23
2023-04-02T08:07:22.156Z,98596.57
2023-04-02T08:09:49.912Z,98600.98
2023-04-02T08:12:17.567Z,98601.23
2023-04-02T08:14:45.228Z,98602.34
2023-04-02T08:17:12.896Z,98606.24
2023-04-02T08:19:52.014Z,98605.93
2023-04-02T08:22:22.344Z,98617.41
2023-04-02T08:24:50.019Z,98613.95
2023-04-02T08:27:17.875Z,98612.71
2023-04-02T08:29:45.740Z,98618.23
2023-04-02T08:32:13.415Z,98621.21
2023-04-02T08:34:41.374Z,98623.73
2023-04-02T08:37:09.033Z,98626.67
2023-04-02T08:39:36.693Z,98626.47
2023-04-02T08:42:04.561Z,98632.90
2023-04-02T08:44:32.590Z,98634.99
2023-04-02T08:47:01.794Z,98634.34
2023-04-02T08:49:29.695Z,98639.59
2023-04-02T08:51:57.468Z,98639.62
2023-04-02T08:54:25.429Z,98646.27
2023-04-02T08:56:53.246Z,98647.83
2023-04-02T08:59:20.977Z,98651.19
2023-04-02T09:01:48.734Z,98654.70
2023-04-02T09:04:16.591Z,98656.04
2023-04-02T09:06:44.344Z,98654.97
2023-04-02T09:09:12.118Z,98653.94
2023-04-02T09:11:39.779Z,98659.14
2023-04-02T09:14:07.539Z,98657.76
2023-04-02T09:16:35.302Z,98664.73
2023-04-02T09:19:02.963Z,98663.23
2023-04-02T09:21:30.629Z,98666.12
2023-04-02T09:23:58.401Z,98669.81
2023-04-02T09:26:27.393Z,98669.85
2023-04-02T09:28:55.048Z,98672.13
2023-04-02T09:31:22.781Z,98676.45
2023-04-02T09:33:50.960Z,98678.20
2023-04-02T09:36:18.732Z,98683.73
2023-04-02T09:38:46.520Z,98691.56
2023-04-02T09:41:14.192Z,98693.52
2023-04-02T09:43:41.945Z,98696.11
2023-04-02T09:46:09.845Z,98701.30
2023-04-02T09:48:39.544Z,98700.77
2023-04-02T09:51:07.383Z,98707.03
2023-04-02T09:53:35.049Z,98702.84
2023-04-02T09:56:02.714Z,98709.25
2023-04-02T09:58:30.469Z,98708.89
2023-04-02T10:00:58.156Z,98708.20
2023-04-02T10:03:26.402Z,98713.77
2023-04-02T10:05:54.068Z,98714.32
2023-04-02T10:08:21.937Z,98713.61
2023-04-02T10:10:49.804Z,98715.73
2023-04-02T10:13:17.459Z,98724.48
2023-04-02T10:15:45.122Z,98726.24
2023-04-02T10:18:12.819Z,98728.16
2023-04-02T10:20:50.459Z,98732.85
2023-04-02T10:23:18.554Z,98733.71
2023-04-02T10:25:46.210Z,98732.01
2023-04-02T10:28:13.990Z,98740.55
2023-04-02T10:30:42.516Z,98740.91
2023-04-02T10:33:10.364Z,98743.70
2023-04-02T10:35:38.403Z,98746.52
2023-04-02T10:38:07.499Z,98750.86
2023-04-02T10:40:35.361Z,98749.84
2023-04-02T10:43:03.535Z,98752.62
2023-04-02T10:45:31.712Z,98760.46
2023-04-02T10:47:59.494Z,98762.58
2023-04-02T10:50:28.259Z,98765.20
2023-04-02T10:52:56.596Z,98769.90
2023-04-02T10:55:24.505Z,98773.23
2023-04-02T10:57:52.175Z,98774.61
2023-04-02T11:00:19.937Z,98776.00
2023-04-02T11:02:47.838Z,98782.09
2023-04-02T11:05:15.870Z,98788.52
2023-04-02T11:07:43.944Z,98790.60
2023-04-02T11:10:11.917Z,98790.80
2023-04-02T11:12:41.685Z,98794.83
2023-04-02T11:15:09.790Z,98800.76
2023-04-02T11:17:37.977Z,98804.08
2023-04-02T11:20:06.241Z,98805.66
2023-04-02T11:22:34.519Z,98812.61
2023-04-02T11:25:02.182Z,98816.28
2023-04-02T11:27:30.156Z,98820.64
2023-04-02T11:29:58.637Z,98827.23
2023-04-02T11:32:27.764Z,98826.20
2023-04-02T11:35:05.187Z,98830.36
2023-04-02T11:37:34.009Z,98832.45
2023-04-02T11:40:01.786Z,98833.69
2023-04-02T11:42:32.045Z,98837.70
2023-04-02T11:45:00.062Z,98839.81
2023-04-02T11:47:27.963Z,98844.70
2023-04-02T11:49:56.342Z,98846.61
2023-04-02T11:52:24.579Z,98847.48
2023-04-02T11:54:52.360Z,98855.65
2023-04-02T11:57:21.587Z,98856.48
2023-04-02T11:59:49.613Z,98853.20
2023-04-02T12:02:17.512Z,98857.71
2023-04-02T12:04:45.679Z,98864.31
2023-04-02T12:07:13.416Z,98867.08
2023-04-02T12:09:41.496Z,98868.30
2023-04-02T12:12:09.353Z,98872.83
2023-04-02T12:14:37.093Z,98873.50
2023-04-02T12:17:06.272Z,98872.45
2023-04-02T12:19:35.715Z,98872.09
2023-04-02T12:22:03.391Z,98872.61
2023-04-02T12:24:31.656Z,98871.38
2023-04-02T12:26:59.418Z,98871.70
2023-04-02T12:29:27.298Z,98871.37
2023-04-02T12:31:55.049Z,98875.33
2023-04-02T12:34:22.827Z,98876.56
2023-04-02T12:36:51.600Z,98878.48
2023-04-02T12:39:19.469Z,98879.37
2023-04-02T12:41:47.640Z,98884.41
2023-04-02T12:44:18.578Z,98881.98
2023-04-02T12:46:46.247Z,98885.64
2023-04-02T12:49:13.907Z,98889.80
2023-04-02T12:51:41.671Z,98888.91
2023-04-02T12:54:09.432Z,98894.46
2023-04-02T12:56:37.296Z,98899.49
2023-04-02T12:59:05.069Z,98897.25
2023-04-02T13:01:34.191Z,98901.25
2023-04-02T13:04:02.058Z,98908.88
2023-04-02T13:06:31.046Z,98910.96
2023-04-02T13:08:58.709Z,98914.80
2023-04-02T13:11:26.852Z,98918.96
2023-04-02T13:13:54.618Z,98916.70
2023-04-02T13:16:22.454Z,98922.09
2023-04-02T13:18:50.258Z,98925.05
2023-04-02T13:21:19.342Z,98926.10
2023-04-02T13:23:47.020Z,98930.09
2023-04-02T13:26:14.875Z,98932.17
2023-04-02T13:28:42.535Z,98939.11
2023-04-02T13:31:10.196Z,98940.85
2023-04-02T13:33:37.960Z,98945.35
2023-04-02T13:36:06.114Z,98950.02
2023-04-02T13:38:33.801Z,98951.77
2023-04-02T13:41:01.667Z,98950.89
2023-04-02T13:43:29.326Z,98954.52
2023-04-02T13:45:57.870Z,98959.02
2023-04-02T13:48:28.845Z,98963.69
2023-04-02T13:50:56.622Z,98968.00
2023-04-02T13:53:24.371Z,98968.68
2023-04-02T13:55:52.867Z,98972.13
2023-04-02T13:58:20.634Z,98976.30
2023-04-02T14:00:48.422Z,98976.95
2023-04-02T14:03:16.761Z,98978.48
2023-04-02T14:05:44.425Z,98982.27
2023-04-02T14:08:12.084Z,98982.95
2023-04-02T14:10:39.753Z,98986.21
2023-04-02T14:13:07.510Z,98991.56
2023-04-02T14:15:35.367Z,98993.27
2023-04-02T14:18:03.448Z,98998.80
2023-04-02T14:20:31.334Z,98996.73
2023-04-02T14:22:59.089Z,99001.05
2023-04-02T14:25:26.744Z,99000.84
2023-04-02T14:27:54.509Z,99004.10
2023-04-02T14:30:22.168Z,99005.63
2023-04-02T14:32:49.901Z,99010.30
2023-04-02T14:35:17.694Z,99012.23
2023-04-02T14:37:45.663Z,99012.38
2023-04-02T14:40:13.325Z,99014.80
2023-04-02T14:42:41.192Z,99014.78
2023-04-02T14:45:08.851Z,99017.55
2023-04-02T14:47:36.842Z,99024.30
2023-04-02T14:50:04.685Z,99026.74
2023-04-02T14:52:32.347Z,99025.54
2023-04-02T14:55:00.009Z,99029.17
2023-04-02T14:57:27.957Z,99027.98
2023-04-02T14:59:55.946Z,99029.00
2023-04-02T15:02:23.667Z,99032.82
2023-04-02T15:04:51.577Z,99033.05
2023-04-02T15:07:19.865Z,99036.91
2023-04-02T15:09:47.616Z,99038.27
2023-04-02T15:12:15.584Z,99039.10
2023-04-02T15:14:43.219Z,99037.87
2023-04-02T15:17:10.909Z,99047.21
2023-04-02T15:19:38.678Z,99049.30
2023-04-02T15:22:09.111Z,99059.00
2023-04-02T15:24:37.375Z,99057.56
2023-04-02T15:27:09.342Z,99065.50
2023-04-02T15:29:39.771Z,99068.95
2023-04-02T15:32:07.424Z,99073.26
2023-04-02T15:34:35.084Z,99075.71
2023-04-02T15:37:02.852Z,99080.77
2023-04-02T15:39:30.932Z,99081.98
2023-04-02T15:41:58.687Z,99083.75
2023-04-02T15:44:26.349Z,99090.00
2023-04-02T15:46:55.652Z,99090.17
2023-04-02T15:49:23.513Z,99093.82
2023-04-02T15:51:51.176Z,99097.83
2023-04-02T15:54:18.843Z,99100.98
2023-04-02T15:56:46.503Z,99107.75
2023-04-02T15:59:14.164Z,99109.81
2023-04-02T16:01:42.027Z,99113.25
2023-04-02T16:04:09.745Z,99116.36
2023-04-02T16:06:37.564Z,99122.56
2023-04-02T16:09:05.223Z,99124.80
2023-04-02T16:11:33.815Z,99127.21
2023-04-02T16:14:01.977Z,99132.04
2023-04-02T16:16:29.803Z,99131.64
2023-04-02T16:18:57.816Z,99133.66
2023-04-02T16:21:25.885Z,99136.35
2023-04-02T16:23:53.788Z,99140.23
2023-04-02T16:26:22.131Z,99144.84
2023-04-02T16:28:50.134Z,99148.37
2023-04-02T16:31:17.990Z,99149.27
2023-04-02T16:33:45.831Z,99150.88
2023-04-02T16:36:13.518Z,99153.25
2023-04-02T16:38:41.259Z,99149.95
2023-04-02T16:41:09.296Z,99157.05
2023-04-02T16:43:37.142Z,99164.39
2023-04-02T16:46:05.061Z,99164.62
2023-04-02T16:48:33.870Z,99170.23
2023-04-02T16:51:01.615Z,99172.84
2023-04-02T16:53:29.379Z,99177.38
2023-04-02T16:55:57.042Z,99184.45
2023-04-02T16:58:24.805Z,99194.26
2023-04-02T17:00:52.570Z,99195.89
2023-04-02T17:03:20.505Z,99207.23
2023-04-02T17:05:48.407Z,99210.84
2023-04-02T17:08:16.170Z,99215.65
2023-04-02T17:10:43.830Z,99220.08
2023-04-02T17:13:12.102Z,99224.36
2023-04-02T17:15:39.994Z,99229.13
2023-04-02T17:18:07.730Z,99231.23
2023-04-02T17:20:35.574Z,99235.28
2023-04-02T17:23:04.735Z,99236.97
2023-04-02T17:25:34.084Z,99237.27
2023-04-02T17:28:01.758Z,99241.04
2023-04-02T17:30:29.419Z,99244.95
2023-04-02T17:32:57.131Z,99248.23
2023-04-02T17:35:25.170Z,99249.66
2023-04-02T17:37:53.049Z,99253.98
2023-04-02T17:40:20.888Z,99257.61
2023-04-02T17:42:48.653Z,99256.73
2023-04-02T17:45:16.416Z,99259.47
2023-04-02T17:47:44.211Z,99263.81
2023-04-02T17:50:11.958Z,99268.20
2023-04-02T17:52:39.721Z,99269.23
2023-04-02T17:55:07.482Z,99269.52
2023-04-02T17:57:35.248Z,99275.16
2023-04-02T18:00:03.833Z,99276.83
2023-04-02T18:02:31.660Z,99280.23
2023-04-02T18:04:59.553Z,99280.44
2023-04-02T18:07:27.215Z,99286.57
2023-04-02T18:09:54.875Z,99290.41
2023-04-02T18:12:22.555Z,99291.73
2023-04-02T18:14:51.027Z,99295.52
2023-04-02T18:17:18.807Z,99293.06
2023-04-02T18:19:46.548Z,99301.13
2023-04-02T18:22:14.214Z,99304.47
2023-04-02T18:24:42.816Z,99310.66
2023-04-02T18:27:10.557Z,99311.32
2023-04-02T18:29:38.331Z,99312.01
2023-04-02T18:32:06.083Z,99314.19
2023-04-02T18:34:33.753Z,99316.90
2023-04-02T18:37:01.509Z,99321.07
2023-04-02T18:39:30.334Z,99324.23
2023-04-02T18:41:58.876Z,99323.30
2023-04-02T18:44:26.540Z,99326.55
2023-04-02T18:46:54.315Z,99330.45
2023-04-02T18:49:22.175Z,99334.87
2023-04-02T18:51:49.832Z,99338.41
2023-04-02T18:54:17.488Z,99336.12
2023-04-02T18:56:45.153Z,99337.30
2023-04-02T18:59:12.822Z,99341.63
2023-04-02T19:04:08.612Z,99344.09
2023-04-02T19:06:36.936Z,99346.89
2023-04-02T19:09:05.314Z,99346.02
2023-04-02T19:11:33.072Z,99349.42
2023-04-02T19:14:01.481Z,99349.14
2023-04-02T19:16:29.291Z,99348.54
2023-04-02T19:18:57.376Z,99352.53
2023-04-02T19:21:25.049Z,99355.11
2023-04-02T19:23:52.814Z,99357.62
2023-04-02T19:26:22.216Z,99356.14
2023-04-02T19:28:50.287Z,99357.40
2023-04-02T19:31:18.133Z,99357.83
2023-04-02T19:33:46.041Z,99355.88
2023-04-02T19:36:13.824Z,99358.31
2023-04-02T19:38:41.661Z,99360.91
2023-04-02T19:41:09.322Z,99361.58
2023-04-02T19:43:36.971Z,99360.75
2023-04-02T19:46:04.638Z,99364.91
2023-04-02T19:48:32.405Z,99365.09
2023-04-02T19:51:00.171Z,99367.65
2023-04-02T19:53:27.926Z,99365.02
2023-04-02T19:55:57.633Z,99368.27
2023-04-02T19:58:25.300Z,99372.55
2023-04-02T20:00:53.074Z,99375.11
2023-04-02T20:03:20.724Z,99378.89
2023-04-02T20:05:48.395Z,99380.55
2023-04-02T20:08:16.257Z,99387.08
2023-04-02T20:10:43.913Z,99385.88
2023-04-02T20:13:11.781Z,99385.49
2023-04-02T20:15:39.453Z,99389.70
2023-04-02T20:18:07.231Z,99393.08
2023-04-02T20:20:35.286Z,99391.70
2023-04-02T20:23:03.458Z,99393.80
2023-04-02T20:25:31.219Z,99392.52
2023-04-02T20:28:01.038Z,99401.42
2023-04-02T20:30:28.697Z,99405.66
2023-04-02T20:32:56.628Z,99407.84
2023-04-02T20:35:24.494Z,99405.98
2023-04-02T20:37:52.299Z,99406.04
2023-04-02T20:40:20.065Z,99407.77
2023-04-02T20:42:47.825Z,99412.06
2023-04-02T20:45:16.100Z,99413.38
2023-04-02T20:47:43.791Z,99410.56
2023-04-02T20:50:11.633Z,99411.16
2023-04-02T20:52:39.393Z,99414.55
2023-04-02T20:55:07.068Z,99414.73
2023-04-02T20:57:34.783Z,99417.79
2023-04-02T21:00:05.343Z,99419.09
2023-04-02T21:02:33.030Z,99420.48
2023-04-02T21:05:00.893Z,99419.47
2023-04-02T21:07:28.746Z,99422.20
2023-04-02T21:09:56.618Z,99421.10
2023-04-02T21:12:25.194Z,99425.30
2023-04-02T21:14:57.866Z,99427.64
2023-04-02T21:17:26.265Z,99427.90
2023-04-02T21:19:54.015Z,99427.42
2023-04-02T21:22:21.776Z,99430.20
2023-04-02T21:24:49.541Z,99427.30
2023-04-02T21:27:17.509Z,99430.90
2023-04-02T21:29:45.268Z,99431.48
2023-04-02T21:32:21.278Z,99431.66
2023-04-02T21:34:49.606Z,99432.88
2023-04-02T21:37:17.265Z,99433.13
2023-04-02T21:39:44.925Z,99433.77
2023-04-02T21:42:14.121Z,99435.75
2023-04-02T21:44:41.886Z,99430.73
2023-04-02T21:47:09.688Z,99436.95
2023-04-02T21:49:37.516Z,99437.05
2023-04-02T21:52:05.176Z,99438.08
2023-04-02T21:54:32.962Z,99441.09
2023-04-02T21:57:00.826Z,99445.40
2023-04-02T21:59:28.574Z,99444.61
2023-04-02T22:01:56.363Z,99449.34
2023-04-02T22:04:24.172Z,99446.70
2023-04-02T22:06:52.384Z,99453.77
2023-04-02T22:09:20.047Z,99456.80
2023-04-02T22:11:47.808Z,99458.05
2023-04-02T22:14:15.463Z,99459.14
2023-04-02T22:16:43.370Z,99459.09
2023-04-02T22:19:11.304Z,99461.98
2023-04-02T22:21:39.064Z,99464.17
2023-04-02T22:24:06.838Z,99465.38
2023-04-02T22:26:34.591Z,99471.42
2023-04-02T22:29:02.253Z,99473.28
2023-04-02T22:31:30.067Z,99475.39
2023-04-02T22:33:57.898Z,99473.68
2023-04-02T22:36:25.654Z,99474.48
2023-04-02T22:38:53.269Z,99473.63
2023-04-02T22:41:21.899Z,99477.91
2023-04-02T22:43:49.668Z,99480.77
2023-04-02T22:46:17.337Z,99478.37
2023-04-02T22:48:45.078Z,99482.38
2023-04-02T22:51:12.719Z,99482.27
2023-04-02T22:53:40.505Z,99484.23
2023-04-02T22:56:08.165Z,99485.34
2023-04-02T22:58:35.830Z,99489.28
2023-04-02T23:01:03.486Z,99491.44
2023-04-02T23:03:31.463Z,99491.70
2023-04-02T23:05:59.122Z,99494.73
2023-04-02T23:08:26.788Z,99494.13
2023-04-02T23:10:54.445Z,99493.34
2023-04-02T23:13:22.120Z,99494.35
2023-04-02T23:15:49.847Z,99495.91
2023-04-02T23:18:17.637Z,99498.11
2023-04-02T23:20:45.719Z,99495.51
2023-04-02T23:23:13.334Z,99501.12
2023-04-02T23:25:41.541Z,99497.71
2023-04-02T23:28:09.205Z,99493.66
2023-04-02T23:30:37.480Z,99495.90
2023-04-02T23:33:05.829Z,99497.89
2023-04-02T23:35:33.737Z,99498.41
2023-04-02T23:38:01.597Z,99495.73
2023-04-02T23:40:29.254Z,99495.80
2023-04-02T23:42:56.920Z,99494.38
2023-04-02T23:45:24.688Z,99497.53
2023-04-02T23:47:52.359Z,99494.84
2023-04-02T23:50:20.207Z,99501.96
2023-04-02T23:52:47.870Z,99498.63
2023-04-02T23:55:15.633Z,99500.82
2023-04-02T23:57:43.294Z,99503.10
